Time;durP1;ratioP1;P1;durP2;ratioP2;P2;SDS_P1;SDS_P2;PMS_P1;PMS_P2;Temp;Humidity;BMP_temperature;BMP_pressure;BME280_temperature;BME280_humidity;BME280_pressure;Samples;Min_cycle;Max_cycle;Signal;HPM_P1;HPM_P2
2023/03/28 00:01:38;;;;;;;2.35;1.00;;;;;;;1.25;100.00;102532.31;4871615;29;20420;-74
2023/03/28 00:04:03;;;;;;;3.53;1.30;;;;;;;1.27;100.00;102537.56;4885513;29;20047;-74
2023/03/28 00:06:32;;;;;;;3.17;1.25;;;;;;;1.30;100.00;102532.44;4887414;29;20048;-74
2023/03/28 00:08:57;;;;;;;4.57;1.20;;;;;;;1.31;100.00;102534.19;4887090;29;20136;-75
2023/03/28 00:11:23;;;;;;;6.38;1.20;;;;;;;1.31;100.00;102526.34;4885439;29;20056;-75
2023/03/28 00:13:56;;;;;;;2.60;1.17;;;;;;;1.30;100.00;102527.22;4865849;29;20056;-75
2023/03/28 00:16:24;;;;;;;4.85;1.00;;;;;;;1.27;100.00;102527.13;4851511;29;20063;-75
2023/03/28 00:18:50;;;;;;;6.40;1.33;;;;;;;1.25;100.00;102528.84;4872181;29;20064;-75
2023/03/28 00:21:24;;;;;;;5.00;1.58;;;;;;;1.20;100.00;102524.38;4869180;29;20048;-75
2023/03/28 00:23:52;;;;;;;2.72;1.25;;;;;;;1.17;100.00;102526.94;4869767;29;20059;-75
2023/03/28 00:26:18;;;;;;;7.30;1.20;;;;;;;1.13;100.00;102527.72;4868751;29;20052;-75
2023/03/28 00:28:47;;;;;;;7.13;1.95;;;;;;;1.11;100.00;102532.03;4872243;29;20049;-75
2023/03/28 00:31:13;;;;;;;3.03;1.00;;;;;;;1.08;100.00;102532.84;4871185;29;20057;-75
2023/03/28 00:33:38;;;;;;;5.05;1.17;;;;;;;1.07;100.00;102540.63;4869384;29;20428;-75
2023/03/28 00:36:09;;;;;;;3.65;1.10;;;;;;;1.04;100.00;102538.84;4856308;29;20044;-75
2023/03/28 00:38:35;;;;;;;6.13;1.58;;;;;;;1.02;100.00;102540.53;4870253;29;20049;-75
2023/03/28 00:41:00;;;;;;;3.60;1.02;;;;;;;1.00;100.00;102544.84;4866182;29;20582;-75
2023/03/28 00:43:44;;;;;;;5.13;1.40;;;;;;;0.99;100.00;102540.50;4853529;29;20049;-75
2023/03/28 00:46:19;;;;;;;4.60;1.27;;;;;;;1.02;100.00;102545.75;4872069;29;20191;-75
2023/03/28 00:48:49;;;;;;;5.25;1.15;;;;;;;1.08;100.00;102550.22;4850924;29;20550;-76
2023/03/28 00:51:17;;;;;;;6.55;1.70;;;;;;;1.14;100.00;102539.91;4868919;29;20387;-75
2023/03/28 00:53:43;;;;;;;5.93;1.40;;;;;;;1.18;100.00;102536.53;4868149;29;20243;-75
2023/03/28 00:56:11;;;;;;;4.13;0.80;;;;;;;1.21;100.00;102536.59;4851503;29;20507;-75
2023/03/28 00:58:55;;;;;;;4.03;1.10;;;;;;;1.22;100.00;102535.72;4867891;29;20059;-75
2023/03/28 01:01:20;;;;;;;4.93;1.13;;;;;;;1.27;100.00;102532.34;4851496;29;20174;-75
2023/03/28 01:03:51;;;;;;;2.35;1.00;;;;;;;1.30;100.00;102535.03;4868921;29;20413;-75
2023/03/28 01:06:20;;;;;;;5.68;0.98;;;;;;;1.31;100.00;102529.81;4851762;29;20397;-75
2023/03/28 01:08:47;;;;;;;4.25;1.17;;;;;;;1.34;100.00;102527.28;4852905;29;20593;-75
2023/03/28 01:11:13;;;;;;;7.65;1.80;;;;;;;1.34;100.00;102521.19;4868182;29;20079;-75
2023/03/28 01:13:47;;;;;;;3.78;0.93;;;;;;;1.34;100.00;102521.19;4852676;29;20531;-75
2023/03/28 01:16:14;;;;;;;3.65;1.05;;;;;;;1.36;100.00;102527.31;4866834;29;20051;-75
2023/03/28 01:18:40;;;;;;;4.47;1.00;;;;;;;1.36;100.00;102529.91;4883875;29;20080;-75
2023/03/28 01:21:11;;;;;;;3.28;1.15;;;;;;;1.33;100.00;102522.94;4889773;29;20463;-76
2023/03/28 01:24:03;;;;;;;3.88;1.20;;;;;;;1.31;100.00;102521.13;4888248;29;20489;-75
2023/03/28 01:26:31;;;;;;;3.83;1.10;;;;;;;1.26;100.00;102523.66;4887936;29;20055;-75
2023/03/28 01:29:05;;;;;;;3.30;1.10;;;;;;;1.22;100.00;102520.06;4887722;29;20056;-75
2023/03/28 01:32:29;;;;;;;3.53;1.00;;;;;;;1.18;100.00;102520.88;4891008;29;20056;-75
2023/03/28 01:35:19;;;;;;;3.15;1.17;;;;;;;1.14;100.00;102521.66;4827212;29;20606;-75
2023/03/28 01:38:03;;;;;;;5.50;0.98;;;;;;;1.09;100.00;102525.88;4827517;29;20537;-75
2023/03/28 01:40:37;;;;;;;;;;;;;;;1.06;100.00;102518.00;4874889;29;20188;-75
2023/03/28 01:43:24;;;;;;;;;;;;;;;1.02;100.00;102519.66;4890952;29;20460;-75
2023/03/28 01:46:04;;;;;;;3.55;1.00;;;;;;;1.00;100.00;102515.25;4873526;29;19923;-75
2023/03/28 01:49:07;;;;;;;1.40;0.82;;;;;;;0.94;100.00;102518.63;4870747;29;20319;-75
2023/03/28 01:51:48;;;;;;;2.00;1.13;;;;;;;0.91;100.00;102515.94;4886562;29;20063;-75
2023/03/28 01:54:27;;;;;;;3.90;1.00;;;;;;;0.85;100.00;102508.88;4888034;29;20048;-75
2023/03/28 01:57:02;;;;;;;5.72;1.00;;;;;;;0.82;100.00;102516.66;4888963;29;20040;-75
2023/03/28 01:59:41;;;;;;;2.75;0.90;;;;;;;0.77;100.00;102513.03;4888365;29;20169;-75
2023/03/28 02:02:20;;;;;;;3.67;1.02;;;;;;;0.72;100.00;102512.06;4888112;29;20780;-75
2023/03/28 02:04:47;;;;;;;4.28;1.00;;;;;;;0.69;100.00;102514.59;4851143;29;20135;-75
2023/03/28 02:07:13;;;;;;;2.95;1.02;;;;;;;0.64;100.00;102504.94;4888277;29;21594;-75
2023/03/28 02:09:41;;;;;;;1.45;0.90;;;;;;;0.61;100.00;102507.47;4888419;29;20426;-75
2023/03/28 02:12:14;;;;;;;3.22;0.95;;;;;;;0.58;100.00;102517.84;4868830;29;20051;-74
2023/03/28 02:14:42;;;;;;;1.30;0.80;;;;;;;0.54;100.00;102509.06;4884960;29;20517;-75
2023/03/28 02:17:14;;;;;;;3.25;1.20;;;;;;;0.53;100.00;102515.13;4854712;29;20052;-75
2023/03/28 02:19:44;;;;;;;3.05;1.20;;;;;;;0.50;100.00;102512.44;4855978;29;20496;-75
2023/03/28 02:22:25;;;;;;;1.77;1.20;;;;;;;0.49;100.00;102515.88;4853480;29;20048;-75
2023/03/28 02:24:51;;;;;;;6.47;1.30;;;;;;;0.48;100.00;102513.28;4864391;29;20063;-75
2023/03/28 02:27:21;;;;;;;2.70;1.10;;;;;;;0.46;100.00;102514.94;4864608;29;20525;-75
2023/03/28 02:29:48;;;;;;;5.28;1.10;;;;;;;0.44;100.00;102504.47;4866475;29;20134;-75
2023/03/28 02:32:15;;;;;;;6.68;1.40;;;;;;;0.45;100.00;102510.56;4868810;29;20040;-75
2023/03/28 02:34:42;;;;;;;2.42;0.93;;;;;;;0.44;100.00;102507.06;4864643;29;20180;-75
2023/03/28 02:37:34;;;;;;;3.40;1.20;;;;;;;0.44;100.00;102512.28;4866999;29;20072;-75
2023/03/28 02:40:11;;;;;;;3.80;1.20;;;;;;;0.45;100.00;102506.25;4850826;29;20136;-75
2023/03/28 02:42:49;;;;;;;4.53;1.67;;;;;;;0.44;100.00;102508.81;4851484;29;20052;-75
2023/03/28 02:45:55;;;;;;;6.03;1.30;;;;;;;0.43;100.00;102502.72;4871371;29;20149;-75
2023/03/28 02:48:42;;;;;;;5.95;1.27;;;;;;;0.40;100.00;102498.31;4864072;29;20037;-75
2023/03/28 02:51:17;;;;;;;2.63;1.08;;;;;;;0.39;100.00;102495.69;4869593;29;20067;-74
2023/03/28 02:54:08;;;;;;;1.23;1.13;;;;;;;0.37;100.00;102507.78;4864674;29;20123;-75
2023/03/28 02:56:43;;;;;;;5.63;1.52;;;;;;;0.34;100.00;102497.28;4850159;29;20864;-75
2023/03/28 02:59:24;;;;;;;4.90;1.00;;;;;;;0.33;100.00;102500.75;4852538;29;20044;-75
2023/03/28 03:01:50;;;;;;;2.30;0.88;;;;;;;0.31;100.00;102503.31;4864906;29;21026;-75
2023/03/28 03:04:16;;;;;;;2.63;1.10;;;;;;;0.29;100.00;102499.78;4847447;29;20052;-75
2023/03/28 03:06:45;;;;;;;8.95;1.25;;;;;;;0.28;100.00;102497.16;4866755;29;22220;-75
2023/03/28 03:09:11;;;;;;;6.78;1.20;;;;;;;0.24;100.00;102493.59;4850699;29;20060;-75
2023/03/28 03:11:37;;;;;;;2.35;1.35;;;;;;;0.21;100.00;102494.38;4865256;29;20076;-75
2023/03/28 03:14:03;;;;;;;4.43;1.60;;;;;;;0.17;100.00;102492.56;4868353;29;20072;-75
2023/03/28 03:16:29;;;;;;;2.50;1.00;;;;;;;0.15;100.00;102488.16;4853429;29;20579;-74
2023/03/28 03:18:56;;;;;;;5.47;1.48;;;;;;;0.12;100.00;102497.66;4856506;29;20560;-75
2023/03/28 03:21:22;;;;;;;3.42;1.10;;;;;;;0.09;100.00;102500.19;4852234;29;20500;-74
2023/03/28 03:23:49;;;;;;;2.88;1.58;;;;;;;0.05;100.00;102495.72;4873674;29;20045;-74
2023/03/28 03:26:15;;;;;;;4.57;1.80;;;;;;;0.03;100.00;102497.44;4839755;29;20044;-74
2023/03/28 03:28:40;;;;;;;5.97;1.45;;;;;;;0.00;100.00;102489.56;4874516;29;20634;-74
2023/03/28 03:31:06;;;;;;;5.13;1.83;;;;;;;-0.02;100.00;102496.41;4872338;29;20378;-74
2023/03/28 03:33:33;;;;;;;4.13;1.45;;;;;;;-0.05;100.00;102493.75;4869607;29;20092;-74
2023/03/28 03:35:58;;;;;;;5.32;1.25;;;;;;;-0.08;100.00;102499.75;4872619;29;20049;-74
2023/03/28 03:38:24;;;;;;;2.30;1.00;;;;;;;-0.11;100.00;102497.06;4851726;29;20060;-74
2023/03/28 03:40:49;;;;;;;2.70;1.60;;;;;;;-0.13;100.00;102495.28;4840000;29;20543;-74
2023/03/28 03:43:15;;;;;;;2.58;1.15;;;;;;;-0.17;100.00;102500.41;4851684;29;22298;-74
2023/03/28 03:45:42;;;;;;;5.82;1.70;;;;;;;-0.19;100.00;102504.69;4853315;29;20059;-74
2023/03/28 03:48:08;;;;;;;4.53;1.45;;;;;;;-0.20;100.00;102505.53;4871960;29;20056;-74
2023/03/28 03:50:33;;;;;;;5.32;1.55;;;;;;;-0.20;100.00;102502.03;4873071;29;20501;-73
2023/03/28 03:52:59;;;;;;;8.98;1.33;;;;;;;-0.19;100.00;102499.50;4856186;29;20044;-73
2023/03/28 03:55:25;;;;;;;9.10;1.60;;;;;;;-0.17;100.00;102509.91;4856955;29;20048;-74
2023/03/28 03:57:51;;;;;;;2.92;1.40;;;;;;;-0.16;100.00;102519.53;4858505;29;20048;-74
2023/03/28 04:00:17;;;;;;;4.50;1.00;;;;;;;-0.16;100.00;102507.38;4853438;29;21941;-73
2023/03/28 04:02:43;;;;;;;2.85;1.23;;;;;;;-0.17;100.00;102505.59;4873199;29;20056;-74
2023/03/28 04:05:08;;;;;;;4.55;1.15;;;;;;;-0.15;100.00;102508.25;4866107;29;20114;-74
2023/03/28 04:07:35;;;;;;;3.40;1.17;;;;;;;-0.14;100.00;102512.63;4872701;29;20067;-74
2023/03/28 04:10:00;;;;;;;3.00;1.00;;;;;;;-0.15;100.00;102510.88;4839551;29;20038;-74
2023/03/28 04:12:26;;;;;;;7.75;1.50;;;;;;;-0.16;100.00;102517.78;4866487;29;20489;-73
2023/03/28 04:14:51;;;;;;;4.72;0.98;;;;;;;-0.18;100.00;102519.47;4853408;29;20056;-74
2023/03/28 04:17:20;;;;;;;7.53;1.42;;;;;;;-0.18;100.00;102521.19;4874317;29;20603;-74
2023/03/28 04:19:46;;;;;;;4.78;1.20;;;;;;;-0.20;100.00;102515.94;4861348;29;20525;-74
2023/03/28 04:22:12;;;;;;;1.85;1.05;;;;;;;-0.20;100.00;102520.25;4867230;29;20064;-74
2023/03/28 04:24:43;;;;;;;2.22;1.25;;;;;;;-0.20;100.00;102515.94;4866137;29;20071;-74
2023/03/28 04:27:09;;;;;;;1.70;0.82;;;;;;;-0.21;100.00;102521.13;4868536;29;20050;-74
2023/03/28 04:29:35;;;;;;;3.70;1.25;;;;;;;-0.23;100.00;102515.84;4855312;29;20072;-74
2023/03/28 04:32:04;;;;;;;5.85;1.30;;;;;;;-0.25;100.00;102522.75;4869384;29;20180;-74
2023/03/28 04:34:32;;;;;;;3.88;1.50;;;;;;;-0.26;100.00;102527.91;4868595;29;21038;-74
2023/03/28 04:37:02;;;;;;;9.07;1.17;;;;;;;-0.30;100.00;102530.44;4870574;29;20041;-74
2023/03/28 04:39:28;;;;;;;5.05;1.40;;;;;;;-0.32;100.00;102532.09;4868706;29;20053;-74
2023/03/28 04:41:54;;;;;;;3.03;1.40;;;;;;;-0.33;100.00;102534.69;4868071;29;20627;-74
2023/03/28 04:44:21;;;;;;;7.70;1.38;;;;;;;-0.28;100.00;102531.34;4853625;29;20100;-74
2023/03/28 04:46:47;;;;;;;7.30;1.50;;;;;;;-0.19;100.00;102528.13;4856671;29;20051;-74
2023/03/28 04:49:13;;;;;;;3.28;1.38;;;;;;;-0.13;100.00;102529.13;4873188;29;20053;-74
2023/03/28 04:51:39;;;;;;;8.57;1.70;;;;;;;-0.10;100.00;102537.00;4873020;29;20053;-74
2023/03/28 04:54:05;;;;;;;4.30;1.15;;;;;;;-0.04;100.00;102539.78;4854647;29;20665;-74
2023/03/28 04:56:30;;;;;;;1.75;1.40;;;;;;;0.01;100.00;102534.69;4841537;29;20136;-74
2023/03/28 04:58:56;;;;;;;3.92;1.50;;;;;;;0.07;100.00;102530.53;4859263;29;20084;-74
2023/03/28 05:01:24;;;;;;;7.22;1.50;;;;;;;0.10;100.00;102533.19;4873431;29;20519;-74
2023/03/28 05:03:50;;;;;;;2.17;1.13;;;;;;;0.15;100.00;102537.66;4857028;29;20049;-73
2023/03/28 05:06:16;;;;;;;5.38;1.10;;;;;;;0.19;100.00;102542.97;4873127;29;20067;-73
2023/03/28 05:08:42;;;;;;;2.92;1.30;;;;;;;0.23;100.00;102528.31;4873893;29;20055;-73
2023/03/28 05:11:08;;;;;;;6.63;1.50;;;;;;;0.26;100.00;102541.38;4876852;29;20052;-73
2023/03/28 05:13:34;;;;;;;3.72;1.10;;;;;;;0.31;100.00;102539.78;4856599;29;20051;-73
2023/03/28 05:15:59;;;;;;;4.18;1.20;;;;;;;0.37;100.00;102529.50;4875078;29;20060;-73
2023/03/28 05:18:25;;;;;;;3.65;1.20;;;;;;;0.42;100.00;102532.22;4873929;29;20045;-73
2023/03/28 05:20:51;;;;;;;2.05;1.40;;;;;;;0.46;100.00;102527.97;4890840;29;20112;-73
2023/03/28 05:23:16;;;;;;;2.55;1.20;;;;;;;0.46;100.00;102523.66;4892049;29;20052;-73
2023/03/28 05:25:42;;;;;;;1.70;1.10;;;;;;;0.49;100.00;102528.91;4885846;29;20397;-73
2023/03/28 05:28:07;;;;;;;2.83;1.25;;;;;;;0.52;100.00;102535.94;4873833;29;20060;-74
2023/03/28 05:30:33;;;;;;;3.25;1.35;;;;;;;0.53;100.00;102524.66;4890901;29;20055;-74
2023/03/28 05:32:59;;;;;;;3.55;1.75;;;;;;;0.54;100.00;102529.03;4890382;29;20564;-73
2023/03/28 05:35:25;;;;;;;2.83;1.30;;;;;;;0.54;100.00;102534.25;4874675;29;20619;-74
2023/03/28 05:37:50;;;;;;;2.88;1.63;;;;;;;0.56;100.00;102529.06;4891248;29;20035;-74
2023/03/28 05:40:16;;;;;;;4.32;1.85;;;;;;;0.57;100.00;102525.63;4890222;29;20064;-74
2023/03/28 05:42:42;;;;;;;4.32;1.55;;;;;;;0.58;100.00;102524.75;4871100;29;20056;-73
2023/03/28 05:45:09;;;;;;;5.15;1.60;;;;;;;0.61;100.00;102536.13;4882010;29;21675;-73
2023/03/28 05:47:35;;;;;;;2.78;1.45;;;;;;;0.64;100.00;102537.94;4889127;29;20072;-74
2023/03/28 05:50:01;;;;;;;3.78;1.27;;;;;;;0.66;100.00;102541.50;4877000;29;20068;-73
2023/03/28 05:52:26;;;;;;;3.38;2.08;;;;;;;0.70;100.00;102539.84;4869290;29;20075;-74
2023/03/28 05:54:54;;;;;;;6.35;2.17;;;;;;;0.72;100.00;102546.84;4854240;29;20314;-73
2023/03/28 05:57:21;;;;;;;3.35;2.00;;;;;;;0.76;100.00;102545.19;4875199;29;20613;-75
2023/03/28 05:59:47;;;;;;;3.83;1.70;;;;;;;0.79;100.00;102543.53;4867426;29;20860;-75
2023/03/28 06:02:15;;;;;;;4.75;1.90;;;;;;;0.83;100.00;102541.88;4873313;29;20052;-74
2023/03/28 06:04:41;;;;;;;2.05;1.42;;;;;;;0.86;100.00;102543.66;4871251;29;20060;-75
2023/03/28 06:07:07;;;;;;;4.88;1.45;;;;;;;0.88;100.00;102539.34;4869647;29;20044;-76
2023/03/28 06:09:34;;;;;;;4.97;1.48;;;;;;;0.90;100.00;102548.09;4873883;29;20540;-75
2023/03/28 06:12:03;;;;;;;3.35;1.30;;;;;;;0.89;100.00;102544.63;4878464;29;20071;-75
2023/03/28 06:14:29;;;;;;;3.22;1.20;;;;;;;0.90;100.00;102548.97;4878413;29;20606;-75
2023/03/28 06:16:55;;;;;;;5.57;1.77;;;;;;;0.89;100.00;102539.41;4893511;29;20055;-75
2023/03/28 06:19:20;;;;;;;4.95;1.30;;;;;;;0.91;100.00;102549.84;4873383;29;20507;-75
2023/03/28 06:21:46;;;;;;;3.10;1.27;;;;;;;0.91;100.00;102542.03;4871451;29;21105;-74
2023/03/28 06:24:12;;;;;;;1.73;1.10;;;;;;;0.91;100.00;102548.13;4889107;29;20136;-74
2023/03/28 06:26:37;;;;;;;4.30;1.20;;;;;;;0.92;100.00;102541.16;4891925;29;20123;-74
2023/03/28 06:29:04;;;;;;;1.80;1.25;;;;;;;0.93;100.00;102546.44;4891759;29;20471;-74
2023/03/28 06:31:29;;;;;;;2.17;1.38;;;;;;;0.96;100.00;102547.38;4889446;29;20250;-73
2023/03/28 06:33:55;;;;;;;1.67;1.10;;;;;;;1.00;100.00;102544.84;4889386;29;20675;-73
2023/03/28 06:36:20;;;;;;;3.30;1.30;;;;;;;1.04;100.00;102544.06;4888154;29;20413;-74
2023/03/28 06:38:46;;;;;;;1.80;1.17;;;;;;;1.10;100.00;102542.44;4888594;29;20044;-73
2023/03/28 06:41:12;;;;;;;3.50;2.15;;;;;;;1.15;100.00;102546.88;4871980;29;20223;-73
2023/03/28 06:43:38;;;;;;;2.13;1.25;;;;;;;1.20;100.00;102544.41;4886948;29;20076;-74
2023/03/28 06:46:03;;;;;;;3.70;1.15;;;;;;;1.26;100.00;102544.53;4887208;29;20340;-73
2023/03/28 06:48:30;;;;;;;3.55;1.60;;;;;;;1.33;100.00;102540.31;4870598;29;20048;-73
2023/03/28 06:50:59;;;;;;;2.40;1.30;;;;;;;1.39;100.00;102540.44;4901387;29;20044;-73
2023/03/28 06:53:25;;;;;;;6.53;1.58;;;;;;;1.48;100.00;102539.75;4879121;29;20144;-73
2023/03/28 06:55:51;;;;;;;2.53;1.10;;;;;;;1.55;100.00;102540.72;4901381;29;20323;-73
2023/03/28 06:58:18;;;;;;;2.05;1.27;;;;;;;1.61;100.00;102541.75;4863085;29;20080;-73
2023/03/28 07:00:43;;;;;;;3.00;1.42;;;;;;;1.68;100.00;102541.88;4877438;29;20159;-73
2023/03/28 07:03:10;;;;;;;5.00;1.88;;;;;;;1.74;100.00;102540.22;4871014;29;20052;-73
2023/03/28 07:05:39;;;;;;;1.52;1.00;;;;;;;1.87;100.00;102541.31;4877238;29;20127;-73
2023/03/28 07:08:07;;;;;;;2.10;2.00;;;;;;;2.03;100.00;102544.22;4859831;29;20429;-74
2023/03/28 07:10:33;;;;;;;8.30;1.50;;;;;;;2.22;100.00;102550.66;4888706;29;20269;-74
2023/03/28 07:12:59;;;;;;;1.10;1.00;;;;;;;2.42;100.00;102542.25;4893573;29;20595;-74
2023/03/28 07:15:26;;;;;;;2.45;0.90;;;;;;;2.60;100.00;102546.88;4896322;29;20041;-74
2023/03/28 07:17:53;;;;;;;2.10;1.10;;;;;;;2.79;100.00;102550.66;4876672;29;20408;-75
2023/03/28 07:20:20;;;;;;;3.72;1.00;;;;;;;3.00;100.00;102551.84;4856523;29;20060;-74
2023/03/28 07:22:45;;;;;;;4.35;1.00;;;;;;;3.19;100.00;102552.94;4892339;29;20059;-74
2023/03/28 07:25:11;;;;;;;1.52;1.00;;;;;;;3.33;100.00;102550.50;4892993;29;20064;-74
2023/03/28 07:27:36;;;;;;;1.75;1.00;;;;;;;3.47;100.00;102549.78;4893774;29;20059;-75
2023/03/28 07:30:03;;;;;;;1.55;1.00;;;;;;;3.59;100.00;102549.06;4892882;29;20068;-75
2023/03/28 07:32:28;;;;;;;3.63;0.80;;;;;;;3.67;100.00;102548.25;4892372;29;20051;-75
2023/03/28 07:34:54;;;;;;;2.85;1.13;;;;;;;3.79;100.00;102559.75;4874064;29;20052;-75
2023/03/28 07:37:30;;;;;;;1.70;1.08;;;;;;;3.89;100.00;102561.59;4877483;29;20124;-75
2023/03/28 07:39:56;;;;;;;2.45;1.05;;;;;;;4.00;100.00;102560.81;4875479;29;20048;-75
2023/03/28 07:42:22;;;;;;;1.80;1.00;;;;;;;4.04;100.00;102560.00;4891575;29;20050;-75
2023/03/28 07:44:47;;;;;;;2.40;0.85;;;;;;;4.12;100.00;102558.31;4873485;29;20044;-75
2023/03/28 07:47:13;;;;;;;1.05;0.85;;;;;;;4.19;100.00;102552.25;4892161;29;20382;-75
2023/03/28 07:49:39;;;;;;;3.67;1.10;;;;;;;4.23;100.00;102560.16;4885904;29;20158;-74
2023/03/28 07:52:05;;;;;;;2.47;0.80;;;;;;;4.26;100.00;102561.06;4888904;29;20036;-74
2023/03/28 07:54:32;;;;;;;1.73;0.80;;;;;;;4.27;100.00;102573.31;4887771;29;22400;-74
2023/03/28 07:56:58;;;;;;;2.40;0.75;;;;;;;4.30;100.00;102565.47;4872558;29;20514;-75
2023/03/28 07:59:24;;;;;;;2.20;1.05;;;;;;;4.28;97.58;102561.06;4871737;29;20032;-75
2023/03/28 08:01:51;;;;;;;1.17;1.00;;;;;;;4.27;94.15;102573.31;4884249;29;20469;-75
2023/03/28 08:04:16;;;;;;;3.40;0.93;;;;;;;4.32;98.62;102571.59;4882704;29;20437;-75
2023/03/28 08:06:42;;;;;;;1.73;0.85;;;;;;;4.34;98.01;102571.59;4882974;29;20047;-76
2023/03/28 08:09:10;;;;;;;0.68;0.60;;;;;;;4.39;96.92;102576.88;4845032;29;20417;-75
2023/03/28 08:11:36;;;;;;;2.28;0.70;;;;;;;4.43;94.59;102569.09;4880513;29;20111;-75
2023/03/28 08:14:04;;;;;;;0.50;0.50;;;;;;;4.49;94.42;102579.59;4864484;29;20096;-75
2023/03/28 08:16:30;;;;;;;1.30;0.60;;;;;;;4.57;91.96;102565.69;4881568;29;20131;-75
2023/03/28 08:18:55;;;;;;;1.10;0.80;;;;;;;4.62;95.36;102564.84;4884933;29;20044;-74
2023/03/28 08:21:22;;;;;;;1.10;0.80;;;;;;;4.70;94.61;102572.78;4878266;29;20052;-73
2023/03/28 08:23:47;;;;;;;1.13;0.60;;;;;;;4.76;87.95;102567.53;4880940;29;20443;-72
2023/03/28 08:26:13;;;;;;;0.70;0.70;;;;;;;4.84;96.30;102574.59;4872815;29;20386;-74
2023/03/28 08:28:40;;;;;;;3.65;0.82;;;;;;;4.92;98.45;102562.41;4883882;29;20223;-74
2023/03/28 08:31:08;;;;;;;1.20;0.63;;;;;;;5.02;94.19;102563.34;4854437;29;20130;-74
2023/03/28 08:33:34;;;;;;;2.53;0.52;;;;;;;5.14;96.73;102557.28;4881834;29;20294;-74
2023/03/28 08:36:00;;;;;;;0.82;0.60;;;;;;;5.25;96.30;102560.84;4882918;29;20135;-74
2023/03/28 08:38:26;;;;;;;1.27;0.80;;;;;;;5.37;96.35;102554.75;4883086;29;20052;-74
2023/03/28 08:41:00;;;;;;;1.05;0.82;;;;;;;5.47;97.19;102553.03;4865273;29;20068;-74
2023/03/28 08:43:45;;;;;;;2.33;0.93;;;;;;;5.55;92.07;102546.03;4863607;29;20699;-74
2023/03/28 08:46:12;;;;;;;1.20;0.60;;;;;;;5.59;89.50;102552.19;4867998;29;20147;-75
2023/03/28 08:48:43;;;;;;;2.15;0.60;;;;;;;5.62;94.81;102548.69;4884496;29;20087;-73
2023/03/28 08:51:36;;;;;;;0.52;0.50;;;;;;;5.71;93.42;102546.06;4865809;29;20112;-73
2023/03/28 08:54:07;;;;;;;1.17;0.80;;;;;;;5.77;89.18;102546.09;4872413;29;20088;-72
2023/03/28 08:56:37;;;;;;;2.55;0.70;;;;;;;5.83;86.57;102559.25;4867284;29;20456;-73
2023/03/28 08:59:11;;;;;;;0.85;0.65;;;;;;;5.87;90.55;102543.50;4863921;29;20052;-72
2023/03/28 09:01:37;;;;;;;0.60;0.60;;;;;;;5.90;89.67;102544.38;4865037;29;20048;-73
2023/03/28 09:04:03;;;;;;;0.88;0.70;;;;;;;5.94;91.67;102542.63;4870131;29;20057;-73
2023/03/28 09:06:39;;;;;;;2.05;0.63;;;;;;;6.02;90.81;102545.25;4861746;29;20103;-73
2023/03/28 09:09:34;;;;;;;1.50;0.63;;;;;;;6.07;88.68;102536.53;4873322;29;20144;-74
2023/03/28 09:12:29;;;;;;;1.13;0.88;;;;;;;6.16;86.42;102537.41;4863851;29;20041;-73
2023/03/28 09:15:14;;;;;;;2.05;0.90;;;;;;;6.22;88.09;102540.03;4878304;29;22022;-74
2023/03/28 09:18:02;;;;;;;2.80;0.80;;;;;;;6.20;79.14;102542.66;4877883;29;20908;-73
2023/03/28 09:20:44;;;;;;;1.58;0.80;;;;;;;6.25;82.37;102542.66;4849080;29;20689;-74
2023/03/28 09:23:16;;;;;;;1.17;0.70;;;;;;;6.30;85.91;102546.19;4838550;29;20048;-73
2023/03/28 09:25:54;;;;;;;2.08;1.10;;;;;;;6.36;84.47;102534.75;4852797;29;20048;-74
2023/03/28 09:28:50;;;;;;;2.35;0.90;;;;;;;6.39;80.41;102537.41;4854048;29;20044;-74
2023/03/28 09:31:18;;;;;;;1.65;1.20;;;;;;;6.38;79.63;102539.16;4843813;29;20430;-74
2023/03/28 09:33:46;;;;;;;1.92;0.80;;;;;;;6.46;84.87;102538.28;4851968;29;20059;-74
2023/03/28 09:36:17;;;;;;;2.70;1.05;;;;;;;6.51;79.57;102533.88;4855221;29;20032;-74
2023/03/28 09:38:45;;;;;;;1.13;0.90;;;;;;;6.54;82.10;102531.22;4851078;29;20135;-74
2023/03/28 09:41:17;;;;;;;2.88;0.80;;;;;;;6.61;87.49;102535.63;4835135;29;20040;-74
2023/03/28 09:43:50;;;;;;;2.08;0.88;;;;;;;6.66;85.59;102528.59;4853117;29;20171;-74
2023/03/28 09:46:38;;;;;;;3.22;1.20;;;;;;;6.75;86.93;102521.56;4850771;29;20610;-75
2023/03/28 09:49:04;;;;;;;2.97;1.10;;;;;;;6.77;86.23;102522.44;4851851;29;21744;-73
2023/03/28 09:51:30;;;;;;;2.38;1.10;;;;;;;6.78;88.65;102516.28;4851083;29;20794;-74
2023/03/28 09:53:55;;;;;;;2.42;1.10;;;;;;;6.82;90.61;102518.03;4855038;29;20048;-74
2023/03/28 09:56:34;;;;;;;2.47;1.38;;;;;;;6.83;90.72;102517.16;4855992;29;20056;-75
2023/03/28 09:59:02;;;;;;;3.58;1.20;;;;;;;6.88;90.84;102520.66;4859918;29;20048;-73
2023/03/28 10:01:43;;;;;;;2.35;1.27;;;;;;;6.92;91.15;102511.00;4860821;29;20107;-74
2023/03/28 10:04:12;;;;;;;2.95;1.30;;;;;;;6.89;93.64;102510.97;4847605;29;20441;-73
2023/03/28 10:06:39;;;;;;;6.78;1.50;;;;;;;6.82;92.90;102499.59;4859059;29;20041;-72
2023/03/28 10:09:18;;;;;;;3.83;1.73;;;;;;;6.81;86.13;102496.97;4842250;29;20121;-73
2023/03/28 10:11:55;;;;;;;2.45;1.50;;;;;;;6.80;91.72;102493.44;4863125;29;20045;-73
2023/03/28 10:14:38;;;;;;;2.47;1.50;;;;;;;6.81;90.97;102497.84;4861182;29;20053;-73
2023/03/28 10:17:24;;;;;;;4.75;1.60;;;;;;;6.87;89.77;102491.69;4862331;29;20045;-73
2023/03/28 10:19:51;;;;;;;1.70;1.40;;;;;;;6.94;93.45;102488.16;4863654;29;20106;-73
2023/03/28 10:22:23;;;;;;;2.35;1.48;;;;;;;7.05;93.63;102482.84;4870295;29;20059;-73
2023/03/28 10:24:48;;;;;;;2.08;1.50;;;;;;;7.18;89.81;102481.00;4879931;29;20050;-72
2023/03/28 10:27:17;;;;;;;2.40;1.55;;;;;;;7.22;89.16;102474.84;4867447;29;20056;-73
2023/03/28 10:29:45;;;;;;;6.35;1.70;;;;;;;7.29;90.54;102479.22;4870962;29;20048;-73
2023/03/28 10:32:12;;;;;;;3.80;1.70;;;;;;;7.37;87.70;102476.53;4862247;29;20052;-73
2023/03/28 10:34:38;;;;;;;3.13;1.50;;;;;;;7.40;89.50;102475.66;4875602;29;20076;-73
2023/03/28 10:37:22;;;;;;;1.95;1.42;;;;;;;7.46;88.83;102460.66;4866792;29;20407;-72
2023/03/28 10:40:16;;;;;;;4.65;1.83;;;;;;;7.40;86.89;102460.69;4870673;29;20047;-73
2023/03/28 10:42:44;;;;;;;4.68;1.77;;;;;;;7.39;87.95;102461.59;4875393;29;20044;-73
2023/03/28 10:45:38;;;;;;;4.40;1.80;;;;;;;7.32;86.95;102462.50;4873513;29;20111;-75
2023/03/28 10:48:28;;;;;;;6.22;2.22;;;;;;;7.26;85.76;102457.28;4876088;29;20052;-75
2023/03/28 10:50:55;;;;;;;5.70;1.98;;;;;;;7.30;86.86;102445.84;4882621;29;20504;-76
2023/03/28 10:53:42;;;;;;;2.67;1.73;;;;;;;7.38;87.25;102454.56;4865930;29;20483;-74
2023/03/28 10:56:32;;;;;;;3.05;1.90;;;;;;;7.41;88.11;102449.25;4876724;29;20060;-74
2023/03/28 10:59:04;;;;;;;6.88;2.30;;;;;;;7.37;84.81;102449.31;4886195;29;20691;-75
2023/03/28 11:01:59;;;;;;;3.47;1.90;;;;;;;7.33;83.02;102440.53;4888498;29;20578;-75
2023/03/28 11:04:32;;;;;;;5.18;1.83;;;;;;;7.32;84.21;102439.66;4852239;29;20855;-75
2023/03/28 11:07:14;;;;;;;7.38;2.33;;;;;;;7.37;86.79;102442.28;4886832;29;20752;-75
2023/03/28 11:10:10;;;;;;;6.82;2.05;;;;;;;7.54;87.33;102433.38;4886036;29;20036;-75
2023/03/28 11:12:50;;;;;;;4.82;2.05;;;;;;;7.62;86.56;102428.91;4889817;29;20059;-75
2023/03/28 11:15:46;;;;;;;6.95;1.80;;;;;;;7.67;83.77;102429.75;4887605;29;20048;-74
2023/03/28 11:18:34;;;;;;;2.67;1.48;;;;;;;7.74;86.06;102417.41;4862510;29;20414;-75
2023/03/28 11:21:08;;;;;;;3.47;1.80;;;;;;;7.86;85.33;102421.72;4888495;29;20131;-75
2023/03/28 11:23:58;;;;;;;4.13;1.80;;;;;;;7.86;84.94;102425.19;4885523;29;20331;-76
2023/03/28 11:26:56;;;;;;;4.45;1.90;;;;;;;7.87;82.78;102412.91;4886091;29;20995;-75
2023/03/28 11:29:48;;;;;;;2.92;1.75;;;;;;;7.86;82.67;102413.78;4887349;29;20484;-74
2023/03/28 11:32:41;;;;;;;4.15;1.77;;;;;;;7.88;82.32;102410.25;4884139;29;20515;-75
2023/03/28 11:35:20;;;;;;;3.83;1.92;;;;;;;7.91;82.09;102403.19;4871741;29;20601;-75
2023/03/28 11:38:01;;;;;;;3.78;1.83;;;;;;;7.93;83.31;102401.41;4871794;29;20043;-76
2023/03/28 11:40:34;;;;;;;3.58;1.92;;;;;;;7.87;83.21;102397.97;4870260;29;20126;-76
2023/03/28 11:43:03;;;;;;;3.80;1.92;;;;;;;7.85;79.61;102393.59;4871169;29;20059;-76
2023/03/28 11:45:33;;;;;;;5.82;1.70;;;;;;;7.81;81.31;102395.38;4887961;29;20357;-76